createdAt,value
2022-08-17T00:01:52.146Z,7.40
2022-08-17T00:04:21.275Z,6.72
2022-08-17T00:06:49.686Z,6.80
2022-08-17T00:09:19.371Z,6.95
2022-08-17T00:12:35.081Z,7.28
2022-08-17T00:14:36.446Z,6.20
2022-08-17T00:17:07.272Z,7.32
2022-08-17T00:19:34.613Z,7.30
2022-08-17T00:22:33.253Z,6.75
2022-08-17T00:29:46.967Z,6.35
2022-08-17T00:33:10.957Z,7.95
2022-08-17T00:35:06.818Z,6.43
2022-08-17T00:37:34.563Z,6.25
2022-08-17T00:40:02.123Z,6.72
2022-08-17T00:42:31.311Z,7.03
2022-08-17T00:44:59.542Z,7.20
2022-08-17T00:47:26.857Z,7.50
2022-08-17T00:49:54.316Z,6.55
2022-08-17T00:52:28.792Z,6.65
2022-08-17T00:54:57.093Z,7.03
2022-08-17T00:57:36.730Z,7.15
2022-08-17T01:00:16.007Z,6.78
2022-08-17T01:02:47.263Z,7.37
2022-08-17T01:05:18.428Z,6.07
2022-08-17T01:07:48.036Z,7.40
2022-08-17T01:13:04.181Z,5.75
2022-08-17T01:15:33.711Z,6.93
2022-08-17T01:18:01.034Z,7.22
2022-08-17T01:20:29.101Z,6.47
2022-08-17T01:22:56.697Z,7.62
2022-08-17T01:25:24.665Z,6.82
2022-08-17T01:27:52.627Z,6.57
2022-08-17T01:30:56.523Z,7.00
2022-08-17T01:33:11.552Z,6.80
2022-08-17T01:35:40.006Z,6.27
2022-08-17T01:38:09.631Z,6.65
2022-08-17T01:40:43.329Z,6.60
2022-08-17T01:43:16.316Z,6.90
2022-08-17T01:45:46.560Z,6.60
2022-08-17T01:48:15.596Z,7.57
2022-08-17T01:50:44.680Z,7.22
2022-08-17T01:53:25.294Z,6.43
2022-08-17T01:55:57.920Z,6.07
2022-08-17T01:58:25.425Z,6.50
2022-08-17T02:01:00.434Z,6.50
2022-08-17T02:03:30.449Z,6.10
2022-08-17T02:05:57.954Z,7.15
2022-08-17T02:08:37.240Z,6.57
2022-08-17T02:11:11.244Z,6.30
2022-08-17T02:13:39.795Z,6.30
2022-08-17T02:16:08.009Z,6.78
2022-08-17T02:18:35.373Z,6.40
2022-08-17T02:21:03.493Z,5.97
2022-08-17T02:23:33.553Z,6.32
2022-08-17T02:26:01.487Z,6.63
2022-08-17T02:28:29.708Z,6.87
2022-08-17T02:31:02.155Z,6.85
2022-08-17T02:33:43.214Z,6.67
2022-08-17T02:36:13.342Z,6.40
2022-08-17T02:38:42.124Z,7.13
2022-08-17T02:41:09.862Z,7.20
2022-08-17T02:43:37.678Z,6.85
2022-08-17T02:46:05.045Z,7.13
2022-08-17T02:48:32.368Z,6.73
2022-08-17T02:51:01.114Z,7.20
2022-08-17T02:53:35.592Z,7.18
2022-08-17T02:56:04.506Z,7.23
2022-08-17T02:58:35.836Z,6.67
2022-08-17T03:01:09.047Z,6.70
2022-08-17T03:03:37.662Z,6.63
2022-08-17T03:06:06.325Z,7.85
2022-08-17T03:08:34.347Z,7.70
2022-08-17T03:11:01.889Z,7.50
2022-08-17T03:13:31.065Z,8.97
2022-08-17T03:15:59.131Z,10.00
2022-08-17T03:18:28.196Z,8.77
2022-08-17T03:21:00.042Z,10.23
2022-08-17T03:23:29.560Z,9.83
2022-08-17T03:25:59.026Z,12.13
2022-08-17T03:28:27.603Z,8.57
2022-08-17T03:30:55.091Z,8.15
2022-08-17T03:33:23.181Z,7.83
2022-08-17T03:35:50.612Z,9.87
2022-08-17T03:38:18.592Z,9.57
2022-08-17T03:40:56.792Z,8.98
2022-08-17T03:43:30.252Z,8.97
2022-08-17T03:46:27.076Z,8.63
2022-08-17T03:49:26.966Z,7.90
2022-08-17T03:52:14.227Z,7.00
2022-08-17T03:55:01.588Z,7.30
2022-08-17T03:57:30.515Z,6.50
2022-08-17T03:59:58.456Z,7.15
2022-08-17T04:02:32.079Z,7.97
2022-08-17T04:05:00.657Z,6.77
2022-08-17T04:07:30.703Z,8.45
2022-08-17T04:09:59.625Z,7.50
2022-08-17T04:12:31.254Z,7.77
2022-08-17T04:14:59.309Z,9.47
2022-08-17T04:17:29.374Z,11.70
2022-08-17T04:19:57.254Z,10.70
2022-08-17T04:22:32.680Z,9.83
2022-08-17T04:25:15.021Z,10.27
2022-08-17T04:27:42.802Z,8.50
2022-08-17T04:30:11.116Z,8.50
2022-08-17T04:33:04.973Z,7.77
2022-08-17T04:35:50.243Z,8.10
2022-08-17T04:38:20.159Z,8.07
2022-08-17T04:41:07.276Z,8.60
2022-08-17T04:43:36.592Z,8.23
2022-08-17T04:46:07.859Z,7.77
2022-08-17T04:48:38.836Z,12.77
2022-08-17T04:51:16.712Z,7.97
2022-08-17T04:53:54.290Z,11.20
2022-08-17T04:56:26.022Z,8.43
2022-08-17T04:58:56.214Z,8.77
2022-08-17T05:01:26.348Z,8.83
2022-08-17T05:03:56.674Z,8.97
2022-08-17T05:06:24.613Z,8.93
2022-08-17T05:08:52.369Z,8.47
2022-08-17T05:11:20.086Z,8.30
2022-08-17T05:13:50.578Z,8.50
2022-08-17T05:16:19.740Z,7.20
2022-08-17T05:21:15.844Z,7.20
2022-08-17T05:23:44.345Z,7.07
2022-08-17T05:26:25.749Z,7.23
2022-08-17T05:28:57.092Z,7.05
2022-08-17T05:31:28.821Z,6.10
2022-08-17T05:33:56.466Z,6.60
2022-08-17T05:36:42.079Z,6.12
2022-08-17T05:39:15.790Z,7.07
2022-08-17T05:41:46.939Z,5.80
2022-08-17T05:44:14.715Z,5.82
2022-08-17T05:46:47.826Z,6.40
2022-08-17T05:49:18.348Z,6.60
2022-08-17T05:52:18.873Z,7.00
2022-08-17T05:55:04.671Z,7.72
2022-08-17T05:57:53.318Z,8.50
2022-08-17T06:00:31.168Z,8.70
2022-08-17T06:03:14.015Z,7.95
2022-08-17T06:05:53.259Z,8.23
2022-08-17T06:08:34.343Z,8.82
2022-08-17T06:11:43.656Z,8.23
2022-08-17T06:14:30.293Z,8.27
2022-08-17T06:17:04.802Z,7.72
2022-08-17T06:19:41.486Z,8.40
2022-08-17T06:22:13.779Z,9.40
2022-08-17T06:24:48.316Z,8.70
2022-08-17T06:27:40.892Z,8.82
2022-08-17T06:30:15.488Z,9.10
2022-08-17T06:32:46.325Z,8.93
2022-08-17T06:35:31.791Z,9.52
2022-08-17T06:38:37.978Z,8.40
2022-08-17T06:41:15.395Z,7.53
2022-08-17T06:44:01.491Z,9.00
2022-08-17T06:46:37.386Z,8.00
2022-08-17T06:49:28.759Z,7.85
2022-08-17T06:52:46.106Z,9.15
2022-08-17T06:55:18.087Z,8.43
2022-08-17T06:57:52.817Z,8.52
2022-08-17T07:00:24.157Z,7.80
2022-08-17T07:03:01.165Z,7.78
2022-08-17T07:05:54.042Z,8.70
2022-08-17T07:08:29.698Z,5.50
2022-08-17T07:11:03.781Z,5.20
2022-08-17T07:14:03.784Z,4.97
2022-08-17T07:17:03.072Z,4.80
2022-08-17T07:19:33.137Z,4.55
2022-08-17T07:22:18.720Z,4.40
2022-08-17T07:24:54.073Z,4.93
2022-08-17T07:27:38.802Z,4.65
2022-08-17T07:30:23.956Z,4.82
2022-08-17T07:32:54.803Z,5.22
2022-08-17T07:35:37.579Z,4.40
2022-08-17T07:38:25.186Z,4.97
2022-08-17T07:40:58.126Z,5.55
2022-08-17T07:43:29.479Z,5.03
2022-08-17T07:46:17.853Z,5.20
2022-08-17T07:48:52.773Z,5.47
2022-08-17T07:51:39.219Z,5.35
2022-08-17T07:54:15.843Z,5.93
2022-08-17T07:56:53.903Z,5.95
2022-08-17T07:59:33.417Z,6.37
2022-08-17T08:02:31.813Z,5.70
2022-08-17T08:05:09.028Z,5.80
2022-08-17T08:07:55.147Z,6.40
2022-08-17T08:10:31.287Z,6.15
2022-08-17T08:13:13.022Z,7.03
2022-08-17T08:15:54.134Z,6.15
2022-08-17T08:18:54.639Z,6.72
2022-08-17T08:21:44.755Z,6.30
2022-08-17T08:24:59.493Z,7.12
2022-08-17T08:27:36.717Z,8.10
2022-08-17T08:30:09.991Z,6.72
2022-08-17T08:32:54.241Z,6.32
2022-08-17T08:35:44.550Z,7.20
2022-08-17T08:38:34.659Z,7.03
2022-08-17T08:41:08.541Z,8.13
2022-08-17T08:43:52.777Z,6.43
2022-08-17T08:47:00.009Z,6.70
2022-08-17T08:50:03.378Z,6.90
2022-08-17T08:53:03.883Z,6.18
2022-08-17T08:55:55.246Z,5.65
2022-08-17T08:58:41.715Z,4.82
2022-08-17T09:01:38.285Z,5.93
2022-08-17T09:04:24.807Z,6.22
2022-08-17T09:07:08.778Z,5.35
2022-08-17T09:09:50.987Z,5.37
2022-08-17T09:12:33.464Z,5.72
2022-08-17T09:15:13.439Z,5.20
2022-08-17T09:18:59.792Z,4.28
2022-08-17T09:21:18.244Z,3.95
2022-08-17T09:23:52.266Z,3.85
2022-08-17T09:26:26.008Z,3.78
2022-08-17T09:29:01.657Z,4.37
2022-08-17T09:31:47.093Z,4.37
2022-08-17T09:34:24.920Z,4.18
2022-08-17T09:37:30.035Z,4.55
2022-08-17T09:40:03.328Z,4.07
2022-08-17T09:42:38.151Z,4.18
2022-08-17T09:45:31.657Z,3.70
2022-08-17T09:48:08.160Z,3.70
2022-08-17T09:51:03.139Z,4.45
2022-08-17T09:53:36.111Z,3.90
2022-08-17T09:56:32.014Z,4.35
2022-08-17T09:59:17.617Z,4.15
2022-08-17T10:02:30.427Z,4.50
2022-08-17T10:05:15.903Z,4.50
2022-08-17T10:07:57.579Z,4.30
2022-08-17T10:11:00.646Z,3.60
2022-08-17T10:13:31.429Z,4.25
2022-08-17T10:16:04.625Z,3.92
2022-08-17T10:19:21.638Z,3.90
2022-08-17T10:22:14.913Z,4.05
2022-08-17T10:25:24.837Z,3.92
2022-08-17T10:28:04.894Z,4.60
2022-08-17T10:30:37.396Z,3.85
2022-08-17T10:33:26.123Z,4.37
2022-08-17T10:36:10.549Z,3.42
2022-08-17T10:38:46.940Z,4.07
2022-08-17T10:41:21.506Z,3.50
2022-08-17T10:44:37.374Z,3.87
2022-08-17T10:47:08.232Z,4.10
2022-08-17T10:49:38.729Z,4.70
2022-08-17T10:52:30.693Z,4.25
2022-08-17T10:55:01.316Z,4.12
2022-08-17T10:57:34.533Z,4.00
2022-08-17T11:00:26.983Z,4.00
2022-08-17T11:02:57.667Z,3.47
2022-08-17T11:05:50.540Z,3.62
2022-08-17T11:09:04.277Z,3.60
2022-08-17T11:11:47.473Z,3.90
2022-08-17T11:14:36.871Z,4.07
2022-08-17T11:17:43.425Z,3.78
2022-08-17T11:20:32.281Z,3.35
2022-08-17T11:23:37.686Z,3.80
2022-08-17T11:26:38.891Z,3.62
2022-08-17T11:29:18.478Z,3.15
2022-08-17T11:32:03.188Z,3.58
2022-08-17T11:34:32.343Z,4.28
2022-08-17T11:37:19.391Z,3.33
2022-08-17T11:40:22.089Z,3.92
2022-08-17T11:43:01.427Z,5.12
2022-08-17T11:45:41.369Z,4.35
2022-08-17T11:48:46.494Z,3.75
2022-08-17T11:51:35.433Z,3.95
2022-08-17T11:54:32.440Z,4.03
2022-08-17T11:57:00.708Z,4.00
2022-08-17T11:59:34.068Z,4.57
2022-08-17T12:02:05.120Z,16.02
2022-08-17T12:04:35.936Z,4.68
2022-08-17T12:07:21.072Z,4.32
2022-08-17T12:09:51.168Z,5.43
2022-08-17T12:12:36.114Z,4.53
2022-08-17T12:15:12.058Z,4.80
2022-08-17T12:17:42.649Z,4.62
2022-08-17T12:20:28.023Z,4.30
2022-08-17T12:23:17.192Z,4.40
2022-08-17T12:25:52.388Z,6.45
2022-08-17T12:28:32.411Z,4.30
2022-08-17T12:31:03.734Z,6.95
2022-08-17T12:33:31.326Z,5.15
2022-08-17T12:36:08.866Z,4.95
2022-08-17T12:38:38.344Z,4.43
2022-08-17T12:41:28.510Z,5.43
2022-08-17T12:44:12.457Z,6.05
2022-08-17T12:47:21.058Z,4.15
2022-08-17T12:49:53.174Z,5.60
2022-08-17T12:52:27.695Z,5.15
2022-08-17T12:55:05.851Z,4.60
2022-08-17T12:57:39.762Z,5.20
2022-08-17T13:00:20.166Z,4.97
2022-08-17T13:03:12.734Z,5.03
2022-08-17T13:06:06.450Z,5.10
2022-08-17T13:08:38.274Z,4.80
2022-08-17T13:11:09.598Z,5.12
2022-08-17T13:13:39.885Z,5.90
2022-08-17T13:16:20.768Z,4.85
2022-08-17T13:19:04.346Z,5.15
2022-08-17T13:21:33.806Z,5.10
2022-08-17T13:24:18.547Z,5.20
2022-08-17T13:26:50.974Z,4.28
2022-08-17T13:29:25.832Z,5.95
2022-08-17T13:32:15.243Z,5.72
2022-08-17T13:35:14.105Z,6.90
2022-08-17T13:37:41.422Z,9.80
2022-08-17T13:40:10.284Z,7.20
2022-08-17T13:42:51.458Z,6.97
2022-08-17T13:45:36.623Z,5.03
2022-08-17T13:48:13.953Z,6.18
2022-08-17T13:51:04.740Z,5.37
2022-08-17T13:53:38.003Z,5.50
2022-08-17T13:56:41.743Z,5.25
2022-08-17T13:59:11.602Z,5.70
2022-08-17T14:01:49.647Z,4.95
2022-08-17T14:04:30.172Z,10.13
2022-08-17T14:06:59.372Z,6.35
2022-08-17T14:09:36.981Z,5.28
2022-08-17T14:12:10.774Z,4.03
2022-08-17T14:14:39.669Z,5.20
2022-08-17T14:17:07.862Z,4.40
2022-08-17T14:19:36.565Z,4.82
2022-08-17T14:22:09.021Z,5.15
2022-08-17T14:24:44.624Z,4.25
2022-08-17T14:27:12.775Z,5.18
2022-08-17T14:29:41.464Z,4.03
2022-08-17T14:32:20.387Z,5.50
2022-08-17T14:34:49.791Z,4.93
2022-08-17T14:37:18.982Z,5.40
2022-08-17T14:39:46.686Z,4.00
2022-08-17T14:44:43.206Z,4.75
2022-08-17T14:47:16.003Z,4.18
2022-08-17T14:49:43.918Z,3.62
2022-08-17T14:52:21.017Z,4.50
2022-08-17T14:54:53.047Z,4.15
2022-08-17T14:57:33.354Z,4.57
2022-08-17T15:00:03.059Z,4.00
2022-08-17T15:02:31.255Z,3.78
2022-08-17T15:05:04.902Z,4.53
2022-08-17T15:07:32.680Z,3.85
2022-08-17T15:10:02.560Z,4.53
2022-08-17T15:12:33.731Z,4.47
2022-08-17T15:15:06.636Z,4.70
2022-08-17T15:17:44.961Z,8.15
2022-08-17T15:20:19.868Z,5.50
2022-08-17T15:22:55.539Z,6.05
2022-08-17T15:25:26.388Z,5.55
2022-08-17T15:27:56.011Z,3.80
2022-08-17T15:30:25.921Z,4.20
2022-08-17T15:32:55.043Z,4.72
2022-08-17T15:35:27.395Z,4.95
2022-08-17T15:37:58.756Z,4.50
2022-08-17T15:40:36.650Z,4.85
2022-08-17T15:43:22.051Z,4.70
2022-08-17T15:46:05.153Z,4.35
2022-08-17T15:48:42.100Z,4.50
2022-08-17T15:51:20.918Z,3.92
2022-08-17T15:53:51.994Z,4.75
2022-08-17T15:56:19.493Z,5.43
2022-08-17T15:58:48.704Z,4.43
2022-08-17T16:02:17.118Z,4.40
2022-08-17T16:04:30.666Z,4.97
2022-08-17T16:06:57.601Z,5.22
2022-08-17T16:11:55.670Z,7.72
2022-08-17T16:14:34.252Z,6.78
2022-08-17T16:17:05.351Z,4.82
2022-08-17T16:19:53.012Z,5.53
2022-08-17T16:22:33.211Z,5.20
2022-08-17T16:25:07.936Z,6.07
2022-08-17T16:27:35.751Z,7.07
2022-08-17T16:30:05.809Z,7.35
2022-08-17T16:32:33.263Z,7.85
2022-08-17T16:35:03.408Z,7.57
2022-08-17T16:37:31.147Z,7.12
2022-08-17T16:40:02.147Z,5.30
2022-08-17T16:42:32.694Z,5.18
2022-08-17T16:45:08.948Z,10.18
2022-08-17T16:47:37.977Z,7.85
2022-08-17T16:50:07.246Z,7.45
2022-08-17T16:52:34.814Z,8.30
2022-08-17T16:55:04.294Z,9.23
2022-08-17T16:57:32.187Z,7.18
2022-08-17T16:59:59.587Z,6.70
2022-08-17T17:02:33.773Z,5.87
2022-08-17T17:05:45.327Z,8.63
2022-08-17T17:08:33.474Z,7.22
2022-08-17T17:11:09.329Z,9.38
2022-08-17T17:14:02.258Z,14.48
2022-08-17T17:16:29.653Z,17.62
2022-08-17T17:19:12.857Z,14.07
2022-08-17T17:21:49.176Z,13.62
2022-08-17T17:24:49.961Z,24.25
2022-08-17T17:27:43.313Z,12.75
2022-08-17T17:30:24.340Z,15.45
2022-08-17T17:33:36.387Z,11.20
2022-08-17T17:36:29.333Z,11.23
2022-08-17T17:39:04.100Z,10.10
2022-08-17T17:42:07.866Z,10.43
2022-08-17T17:44:41.231Z,9.27
2022-08-17T17:47:10.153Z,9.70
2022-08-17T17:49:41.912Z,8.73
2022-08-17T17:52:26.334Z,8.18
2022-08-17T17:55:23.298Z,9.02
2022-08-17T17:58:00.947Z,8.20
2022-08-17T18:00:58.673Z,8.10
2022-08-17T18:03:45.098Z,7.37
2022-08-17T18:06:30.023Z,7.85
2022-08-17T18:09:19.350Z,8.30
2022-08-17T18:12:27.059Z,7.75
2022-08-17T18:15:14.179Z,10.40
2022-08-17T18:18:15.003Z,10.23
2022-08-17T18:20:53.884Z,9.18
2022-08-17T18:23:28.205Z,9.35
2022-08-17T18:25:57.203Z,10.13
2022-08-17T18:28:29.730Z,9.27
2022-08-17T18:31:21.928Z,9.05
2022-08-17T18:33:52.698Z,9.63
2022-08-17T18:36:33.451Z,10.60
2022-08-17T18:39:19.203Z,9.82
2022-08-17T18:41:51.247Z,9.13
2022-08-17T18:44:31.443Z,8.80
2022-08-17T18:47:13.943Z,8.95
2022-08-17T18:49:44.624Z,10.15
2022-08-17T18:52:32.235Z,9.70
2022-08-17T18:55:02.574Z,9.70
2022-08-17T18:57:35.194Z,8.98
2022-08-17T19:00:11.573Z,9.27
2022-08-17T19:03:02.195Z,8.38
2022-08-17T19:05:38.087Z,8.98
2022-08-17T19:08:27.601Z,8.35
2022-08-17T19:10:59.931Z,8.18
2022-08-17T19:13:42.958Z,8.57
2022-08-17T19:16:30.006Z,8.52
2022-08-17T19:19:10.101Z,7.82
2022-08-17T19:21:47.473Z,8.50
2022-08-17T19:24:22.122Z,8.55
2022-08-17T19:27:34.731Z,8.27
2022-08-17T19:30:13.769Z,8.82
2022-08-17T19:32:42.951Z,7.78
2022-08-17T19:35:17.376Z,8.25
2022-08-17T19:38:01.001Z,7.97
2022-08-17T19:40:54.520Z,7.87
2022-08-17T19:43:28.653Z,8.35
2022-08-17T19:46:18.184Z,7.93
2022-08-17T19:48:45.918Z,8.60
2022-08-17T19:51:41.153Z,7.57
2022-08-17T19:54:28.351Z,7.50
2022-08-17T19:57:06.821Z,8.40
2022-08-17T20:00:12.617Z,6.93
2022-08-17T20:02:47.239Z,7.55
2022-08-17T20:05:21.072Z,8.10
2022-08-17T20:07:53.133Z,9.05
2022-08-17T20:10:40.796Z,8.02
2022-08-17T20:13:13.998Z,8.15
2022-08-17T20:15:43.833Z,8.43
2022-08-17T20:18:21.238Z,9.05
2022-08-17T20:20:58.792Z,7.68
2022-08-17T20:23:30.895Z,8.27
2022-08-17T20:26:26.600Z,7.97
2022-08-17T20:29:14.369Z,8.13
2022-08-17T20:31:57.357Z,8.57
2022-08-17T20:34:33.604Z,8.45
2022-08-17T20:37:28.516Z,8.63
2022-08-17T20:39:56.427Z,8.77
2022-08-17T20:42:23.916Z,8.57
2022-08-17T20:45:13.376Z,7.55
2022-08-17T20:48:07.299Z,7.72
2022-08-17T20:50:36.920Z,8.25
2022-08-17T20:53:09.502Z,8.05
2022-08-17T20:55:52.387Z,7.60
2022-08-17T20:58:24.921Z,7.78
2022-08-17T21:01:01.741Z,7.62
2022-08-17T21:03:49.198Z,7.80
2022-08-17T21:06:21.219Z,7.40
2022-08-17T21:09:18.047Z,7.90
2022-08-17T21:12:04.185Z,8.13
2022-08-17T21:14:59.131Z,8.02
2022-08-17T21:17:38.403Z,9.48
2022-08-17T21:20:32.719Z,7.95
2022-08-17T21:23:16.562Z,8.00
2022-08-17T21:26:01.169Z,7.78
2022-08-17T21:29:29.572Z,7.50
2022-08-17T21:32:06.283Z,7.57
2022-08-17T21:35:06.515Z,7.65
2022-08-17T21:37:46.113Z,8.00
2022-08-17T21:40:13.559Z,7.90
2022-08-17T21:42:50.706Z,7.80
2022-08-17T21:45:30.621Z,8.43
2022-08-17T21:48:16.853Z,7.68
2022-08-17T21:50:56.136Z,9.20
2022-08-17T21:53:48.863Z,7.57
2022-08-17T21:56:38.965Z,7.78
2022-08-17T21:59:21.357Z,8.15
2022-08-17T22:01:58.773Z,7.68
2022-08-17T22:04:31.247Z,7.37
2022-08-17T22:07:01.606Z,8.10
2022-08-17T22:09:33.077Z,7.07
2022-08-17T22:12:04.696Z,7.82
2022-08-17T22:14:52.867Z,8.07
2022-08-17T22:17:26.882Z,8.27
2022-08-17T22:20:17.689Z,8.02
2022-08-17T22:23:12.974Z,7.40
2022-08-17T22:26:00.274Z,7.32
2022-08-17T22:28:53.495Z,8.02
2022-08-17T22:31:49.654Z,7.55
2022-08-17T22:34:17.567Z,6.90
2022-08-17T22:36:46.086Z,7.95
2022-08-17T22:39:13.581Z,7.18
2022-08-17T22:41:54.152Z,7.25
2022-08-17T22:44:23.721Z,7.82
2022-08-17T22:46:53.665Z,7.43
2022-08-17T22:49:53.467Z,7.72
2022-08-17T22:52:21.985Z,8.32
2022-08-17T22:55:09.424Z,9.00
2022-08-17T22:58:03.658Z,7.68
2022-08-17T23:00:51.757Z,7.50
2022-08-17T23:03:23.040Z,7.32
2022-08-17T23:06:10.031Z,8.10
2022-08-17T23:08:55.219Z,6.87
2022-08-17T23:11:36.811Z,6.95
2022-08-17T23:14:15.939Z,6.90
2022-08-17T23:16:43.318Z,7.15
2022-08-17T23:19:12.919Z,6.68
2022-08-17T23:21:40.861Z,7.00
2022-08-17T23:24:09.268Z,7.47
2022-08-17T23:26:39.305Z,6.93
2022-08-17T23:29:08.087Z,6.62
2022-08-17T23:31:37.913Z,7.22
2022-08-17T23:34:10.838Z,6.72
2022-08-17T23:36:39.446Z,6.72
2022-08-17T23:39:07.832Z,7.00
2022-08-17T23:41:40.229Z,7.30
2022-08-17T23:44:08.195Z,7.18
2022-08-17T23:46:36.432Z,7.30
2022-08-17T23:49:07.000Z,7.55
2022-08-17T23:51:42.642Z,7.20
2022-08-17T23:54:25.573Z,7.87
2022-08-17T23:56:53.858Z,7.90
2022-08-17T23:59:23.867Z,7.60
